sensor_id;sensor_type;location;lat;lon;timestamp;P1;durP1;ratioP1;P2;durP2;ratioP2
13374;SDS011;6756;51.354;15.754;2022-07-15T00:01:03;2.53;;;1.00;;
13374;SDS011;6756;51.354;15.754;2022-07-15T00:05:04;1.77;;;0.60;;
13374;SDS011;6756;51.354;15.754;2022-07-15T00:09:06;2.47;;;0.80;;
13374;SDS011;6756;51.354;15.754;2022-07-15T00:13:07;1.17;;;0.57;;
13374;SDS011;6756;51.354;15.754;2022-07-15T00:17:08;2.60;;;0.67;;
13374;SDS011;6756;51.354;15.754;2022-07-15T00:21:09;0.67;;;0.50;;
13374;SDS011;6756;51.354;15.754;2022-07-15T00:25:09;4.23;;;0.80;;
13374;SDS011;6756;51.354;15.754;2022-07-15T00:29:10;3.60;;;0.70;;
13374;SDS011;6756;51.354;15.754;2022-07-15T00:33:11;3.73;;;0.87;;
13374;SDS011;6756;51.354;15.754;2022-07-15T00:37:13;1.63;;;0.80;;
13374;SDS011;6756;51.354;15.754;2022-07-15T00:41:14;2.50;;;0.90;;
13374;SDS011;6756;51.354;15.754;2022-07-15T00:45:27;4.50;;;1.00;;
13374;SDS011;6756;51.354;15.754;2022-07-15T00:49:27;2.90;;;0.90;;
13374;SDS011;6756;51.354;15.754;2022-07-15T00:53:28;2.77;;;0.77;;
13374;SDS011;6756;51.354;15.754;2022-07-15T00:57:32;4.50;;;0.90;;
13374;SDS011;6756;51.354;15.754;2022-07-15T01:01:36;2.03;;;0.90;;
13374;SDS011;6756;51.354;15.754;2022-07-15T01:10:03;2.97;;;0.90;;
13374;SDS011;6756;51.354;15.754;2022-07-15T01:14:04;1.27;;;0.60;;
13374;SDS011;6756;51.354;15.754;2022-07-15T01:18:05;2.20;;;0.90;;
13374;SDS011;6756;51.354;15.754;2022-07-15T01:22:07;3.20;;;0.80;;
13374;SDS011;6756;51.354;15.754;2022-07-15T01:26:08;4.23;;;0.93;;
13374;SDS011;6756;51.354;15.754;2022-07-15T01:30:11;2.37;;;0.80;;
13374;SDS011;6756;51.354;15.754;2022-07-15T01:34:12;1.90;;;0.80;;
13374;SDS011;6756;51.354;15.754;2022-07-15T01:38:14;3.37;;;0.90;;
13374;SDS011;6756;51.354;15.754;2022-07-15T01:42:15;2.30;;;0.80;;
13374;SDS011;6756;51.354;15.754;2022-07-15T01:46:16;4.03;;;0.77;;
13374;SDS011;6756;51.354;15.754;2022-07-15T01:50:16;1.57;;;0.67;;
13374;SDS011;6756;51.354;15.754;2022-07-15T01:54:17;2.53;;;1.07;;
13374;SDS011;6756;51.354;15.754;2022-07-15T01:58:18;2.87;;;1.00;;
13374;SDS011;6756;51.354;15.754;2022-07-15T02:02:20;1.50;;;0.93;;
13374;SDS011;6756;51.354;15.754;2022-07-15T02:06:20;5.93;;;0.80;;
13374;SDS011;6756;51.354;15.754;2022-07-15T02:10:22;1.67;;;0.67;;
13374;SDS011;6756;51.354;15.754;2022-07-15T02:14:23;2.03;;;1.00;;
13374;SDS011;6756;51.354;15.754;2022-07-15T02:18:24;2.10;;;0.87;;
13374;SDS011;6756;51.354;15.754;2022-07-15T02:22:25;3.40;;;0.83;;
13374;SDS011;6756;51.354;15.754;2022-07-15T02:26:26;1.77;;;0.77;;
13374;SDS011;6756;51.354;15.754;2022-07-15T02:30:28;1.43;;;0.90;;
13374;SDS011;6756;51.354;15.754;2022-07-15T02:34:31;7.63;;;1.43;;
13374;SDS011;6756;51.354;15.754;2022-07-15T02:38:32;3.43;;;1.07;;
13374;SDS011;6756;51.354;15.754;2022-07-15T02:42:33;3.40;;;1.20;;
13374;SDS011;6756;51.354;15.754;2022-07-15T02:46:34;4.13;;;1.20;;
13374;SDS011;6756;51.354;15.754;2022-07-15T02:50:35;3.13;;;0.77;;
13374;SDS011;6756;51.354;15.754;2022-07-15T02:54:36;2.50;;;0.80;;
13374;SDS011;6756;51.354;15.754;2022-07-15T02:58:37;1.60;;;0.90;;
13374;SDS011;6756;51.354;15.754;2022-07-15T03:02:38;2.67;;;1.00;;
13374;SDS011;6756;51.354;15.754;2022-07-15T03:06:39;3.73;;;0.90;;
13374;SDS011;6756;51.354;15.754;2022-07-15T03:10:40;3.80;;;0.97;;
13374;SDS011;6756;51.354;15.754;2022-07-15T03:14:41;5.80;;;1.03;;
13374;SDS011;6756;51.354;15.754;2022-07-15T03:18:42;1.80;;;0.80;;
13374;SDS011;6756;51.354;15.754;2022-07-15T03:22:43;2.73;;;1.07;;
13374;SDS011;6756;51.354;15.754;2022-07-15T03:26:44;2.57;;;1.00;;
13374;SDS011;6756;51.354;15.754;2022-07-15T03:30:45;3.07;;;0.70;;
13374;SDS011;6756;51.354;15.754;2022-07-15T03:34:46;2.47;;;0.83;;
13374;SDS011;6756;51.354;15.754;2022-07-15T03:38:49;3.03;;;0.70;;
13374;SDS011;6756;51.354;15.754;2022-07-15T03:42:51;2.70;;;0.70;;
13374;SDS011;6756;51.354;15.754;2022-07-15T03:46:52;2.13;;;1.00;;
13374;SDS011;6756;51.354;15.754;2022-07-15T03:50:54;3.03;;;0.93;;
13374;SDS011;6756;51.354;15.754;2022-07-15T03:54:54;2.33;;;0.57;;
13374;SDS011;6756;51.354;15.754;2022-07-15T03:58:55;1.97;;;0.50;;
13374;SDS011;6756;51.354;15.754;2022-07-15T04:02:57;1.40;;;0.73;;
13374;SDS011;6756;51.354;15.754;2022-07-15T04:06:58;2.60;;;1.10;;
13374;SDS011;6756;51.354;15.754;2022-07-15T04:10:59;1.97;;;0.77;;
13374;SDS011;6756;51.354;15.754;2022-07-15T04:14:59;0.70;;;0.60;;
13374;SDS011;6756;51.354;15.754;2022-07-15T04:19:00;3.07;;;0.50;;
13374;SDS011;6756;51.354;15.754;2022-07-15T04:23:01;1.77;;;0.57;;
13374;SDS011;6756;51.354;15.754;2022-07-15T04:27:02;4.13;;;0.57;;
13374;SDS011;6756;51.354;15.754;2022-07-15T04:31:03;1.63;;;0.60;;
13374;SDS011;6756;51.354;15.754;2022-07-15T04:35:04;2.00;;;0.73;;
13374;SDS011;6756;51.354;15.754;2022-07-15T04:39:05;2.03;;;0.50;;
13374;SDS011;6756;51.354;15.754;2022-07-15T04:43:06;1.77;;;0.60;;
13374;SDS011;6756;51.354;15.754;2022-07-15T04:47:07;1.13;;;0.50;;
13374;SDS011;6756;51.354;15.754;2022-07-15T04:51:08;1.47;;;0.40;;
13374;SDS011;6756;51.354;15.754;2022-07-15T04:55:09;1.30;;;0.47;;
13374;SDS011;6756;51.354;15.754;2022-07-15T04:59:10;3.60;;;1.00;;
13374;SDS011;6756;51.354;15.754;2022-07-15T05:03:10;2.73;;;0.77;;
13374;SDS011;6756;51.354;15.754;2022-07-15T05:07:12;4.20;;;0.80;;
13374;SDS011;6756;51.354;15.754;2022-07-15T05:11:12;1.93;;;0.87;;
13374;SDS011;6756;51.354;15.754;2022-07-15T05:15:13;2.47;;;0.90;;
13374;SDS011;6756;51.354;15.754;2022-07-15T05:19:15;2.60;;;0.80;;
13374;SDS011;6756;51.354;15.754;2022-07-15T05:23:16;1.37;;;0.80;;
13374;SDS011;6756;51.354;15.754;2022-07-15T05:27:17;3.20;;;0.90;;
13374;SDS011;6756;51.354;15.754;2022-07-15T05:31:18;3.13;;;0.90;;
13374;SDS011;6756;51.354;15.754;2022-07-15T05:35:19;3.13;;;1.00;;
13374;SDS011;6756;51.354;15.754;2022-07-15T05:39:21;2.13;;;0.90;;
13374;SDS011;6756;51.354;15.754;2022-07-15T05:43:23;3.77;;;1.10;;
13374;SDS011;6756;51.354;15.754;2022-07-15T05:47:24;3.03;;;0.97;;
13374;SDS011;6756;51.354;15.754;2022-07-15T05:51:25;2.60;;;0.87;;
13374;SDS011;6756;51.354;15.754;2022-07-15T05:55:25;4.80;;;0.93;;
13374;SDS011;6756;51.354;15.754;2022-07-15T05:59:26;2.80;;;1.10;;
13374;SDS011;6756;51.354;15.754;2022-07-15T06:03:27;2.90;;;1.07;;
13374;SDS011;6756;51.354;15.754;2022-07-15T06:07:28;2.50;;;0.80;;
13374;SDS011;6756;51.354;15.754;2022-07-15T06:11:29;3.17;;;0.73;;
13374;SDS011;6756;51.354;15.754;2022-07-15T06:15:30;5.30;;;1.70;;
13374;SDS011;6756;51.354;15.754;2022-07-15T06:19:31;3.83;;;1.40;;
13374;SDS011;6756;51.354;15.754;2022-07-15T06:23:31;7.70;;;1.63;;
13374;SDS011;6756;51.354;15.754;2022-07-15T06:27:32;2.30;;;1.10;;
13374;SDS011;6756;51.354;15.754;2022-07-15T06:31:34;1.93;;;1.00;;
13374;SDS011;6756;51.354;15.754;2022-07-15T06:35:35;1.03;;;0.70;;
13374;SDS011;6756;51.354;15.754;2022-07-15T06:39:36;2.17;;;0.90;;
13374;SDS011;6756;51.354;15.754;2022-07-15T06:43:37;4.60;;;0.83;;
13374;SDS011;6756;51.354;15.754;2022-07-15T06:47:42;4.20;;;0.60;;
13374;SDS011;6756;51.354;15.754;2022-07-15T06:51:42;3.43;;;0.50;;
13374;SDS011;6756;51.354;15.754;2022-07-15T06:55:43;3.03;;;0.83;;
13374;SDS011;6756;51.354;15.754;2022-07-15T06:59:44;2.90;;;0.50;;
13374;SDS011;6756;51.354;15.754;2022-07-15T07:03:45;2.93;;;0.60;;
13374;SDS011;6756;51.354;15.754;2022-07-15T07:07:45;2.67;;;0.70;;
13374;SDS011;6756;51.354;15.754;2022-07-15T07:11:46;2.70;;;0.83;;
13374;SDS011;6756;51.354;15.754;2022-07-15T07:15:48;3.23;;;1.10;;
13374;SDS011;6756;51.354;15.754;2022-07-15T07:19:48;1.23;;;0.63;;
13374;SDS011;6756;51.354;15.754;2022-07-15T07:23:49;3.80;;;0.83;;
13374;SDS011;6756;51.354;15.754;2022-07-15T07:27:50;1.10;;;0.37;;
13374;SDS011;6756;51.354;15.754;2022-07-15T07:31:51;2.77;;;0.77;;
13374;SDS011;6756;51.354;15.754;2022-07-15T07:35:52;2.40;;;0.60;;
13374;SDS011;6756;51.354;15.754;2022-07-15T07:39:53;2.40;;;0.70;;
13374;SDS011;6756;51.354;15.754;2022-07-15T07:43:54;2.30;;;0.57;;
13374;SDS011;6756;51.354;15.754;2022-07-15T07:47:55;1.87;;;0.60;;
13374;SDS011;6756;51.354;15.754;2022-07-15T07:51:56;2.13;;;0.33;;
13374;SDS011;6756;51.354;15.754;2022-07-15T07:55:57;1.67;;;0.60;;
13374;SDS011;6756;51.354;15.754;2022-07-15T07:59:58;3.30;;;0.47;;
13374;SDS011;6756;51.354;15.754;2022-07-15T08:03:59;4.70;;;0.77;;
13374;SDS011;6756;51.354;15.754;2022-07-15T08:12:10;1.83;;;0.50;;
13374;SDS011;6756;51.354;15.754;2022-07-15T08:16:11;2.17;;;0.50;;
13374;SDS011;6756;51.354;15.754;2022-07-15T08:20:12;3.47;;;1.00;;
13374;SDS011;6756;51.354;15.754;2022-07-15T08:24:13;2.00;;;0.60;;
13374;SDS011;6756;51.354;15.754;2022-07-15T08:28:14;3.03;;;0.63;;
13374;SDS011;6756;51.354;15.754;2022-07-15T08:32:15;1.37;;;0.70;;
13374;SDS011;6756;51.354;15.754;2022-07-15T08:36:16;1.53;;;0.50;;
13374;SDS011;6756;51.354;15.754;2022-07-15T08:40:17;2.43;;;0.70;;
13374;SDS011;6756;51.354;15.754;2022-07-15T08:44:18;3.47;;;0.80;;
13374;SDS011;6756;51.354;15.754;2022-07-15T08:48:18;3.80;;;1.00;;
13374;SDS011;6756;51.354;15.754;2022-07-15T08:52:24;4.77;;;0.67;;
13374;SDS011;6756;51.354;15.754;2022-07-15T08:56:25;1.20;;;0.50;;
13374;SDS011;6756;51.354;15.754;2022-07-15T09:00:27;4.40;;;0.80;;
13374;SDS011;6756;51.354;15.754;2022-07-15T09:04:30;4.00;;;0.90;;
13374;SDS011;6756;51.354;15.754;2022-07-15T09:08:31;2.33;;;0.60;;
13374;SDS011;6756;51.354;15.754;2022-07-15T09:12:39;2.87;;;0.50;;
13374;SDS011;6756;51.354;15.754;2022-07-15T09:16:42;2.40;;;0.43;;
13374;SDS011;6756;51.354;15.754;2022-07-15T09:20:43;2.93;;;0.77;;
13374;SDS011;6756;51.354;15.754;2022-07-15T09:24:45;5.30;;;0.70;;
13374;SDS011;6756;51.354;15.754;2022-07-15T09:28:45;3.50;;;0.53;;
13374;SDS011;6756;51.354;15.754;2022-07-15T09:32:46;2.83;;;0.67;;
13374;SDS011;6756;51.354;15.754;2022-07-15T09:37:05;4.13;;;0.60;;
13374;SDS011;6756;51.354;15.754;2022-07-15T09:41:07;1.53;;;0.50;;
13374;SDS011;6756;51.354;15.754;2022-07-15T09:45:20;1.93;;;0.50;;
13374;SDS011;6756;51.354;15.754;2022-07-15T09:53:25;2.60;;;0.50;;
13374;SDS011;6756;51.354;15.754;2022-07-15T09:57:26;2.73;;;0.70;;
13374;SDS011;6756;51.354;15.754;2022-07-15T10:01:26;2.17;;;0.50;;
13374;SDS011;6756;51.354;15.754;2022-07-15T10:05:28;2.00;;;0.60;;
13374;SDS011;6756;51.354;15.754;2022-07-15T10:09:32;2.33;;;0.40;;
13374;SDS011;6756;51.354;15.754;2022-07-15T10:30:21;3.17;;;0.80;;
13374;SDS011;6756;51.354;15.754;2022-07-15T10:34:28;3.40;;;0.53;;
13374;SDS011;6756;51.354;15.754;2022-07-15T10:38:34;3.80;;;0.60;;
13374;SDS011;6756;51.354;15.754;2022-07-15T10:51:41;1.93;;;0.40;;
13374;SDS011;6756;51.354;15.754;2022-07-15T10:55:37;3.93;;;0.33;;
13374;SDS011;6756;51.354;15.754;2022-07-15T10:59:39;1.33;;;0.40;;
13374;SDS011;6756;51.354;15.754;2022-07-15T11:04:30;4.13;;;0.80;;
13374;SDS011;6756;51.354;15.754;2022-07-15T11:16:32;2.40;;;0.70;;
13374;SDS011;6756;51.354;15.754;2022-07-15T11:20:34;3.10;;;0.60;;
13374;SDS011;6756;51.354;15.754;2022-07-15T11:24:36;2.93;;;0.60;;
13374;SDS011;6756;51.354;15.754;2022-07-15T11:28:37;1.90;;;0.50;;
13374;SDS011;6756;51.354;15.754;2022-07-15T11:32:38;0.97;;;0.50;;
13374;SDS011;6756;51.354;15.754;2022-07-15T11:36:38;3.10;;;0.70;;
13374;SDS011;6756;51.354;15.754;2022-07-15T11:41:00;3.90;;;0.63;;
13374;SDS011;6756;51.354;15.754;2022-07-15T11:45:34;3.27;;;0.70;;
13374;SDS011;6756;51.354;15.754;2022-07-15T11:49:37;4.83;;;0.60;;
13374;SDS011;6756;51.354;15.754;2022-07-15T11:53:44;2.57;;;0.50;;
13374;SDS011;6756;51.354;15.754;2022-07-15T11:57:47;1.83;;;0.60;;
13374;SDS011;6756;51.354;15.754;2022-07-15T12:02:11;2.60;;;0.70;;
13374;SDS011;6756;51.354;15.754;2022-07-15T12:06:21;4.93;;;1.10;;
13374;SDS011;6756;51.354;15.754;2022-07-15T12:10:36;1.77;;;0.60;;
13374;SDS011;6756;51.354;15.754;2022-07-15T12:14:40;4.50;;;0.77;;
13374;SDS011;6756;51.354;15.754;2022-07-15T12:18:42;3.73;;;0.70;;
13374;SDS011;6756;51.354;15.754;2022-07-15T12:23:02;2.77;;;0.80;;
13374;SDS011;6756;51.354;15.754;2022-07-15T12:27:08;3.57;;;0.60;;
13374;SDS011;6756;51.354;15.754;2022-07-15T12:31:09;2.10;;;0.53;;
13374;SDS011;6756;51.354;15.754;2022-07-15T12:35:10;1.53;;;0.43;;
13374;SDS011;6756;51.354;15.754;2022-07-15T12:39:12;1.93;;;0.50;;
13374;SDS011;6756;51.354;15.754;2022-07-15T12:43:18;4.30;;;0.80;;
13374;SDS011;6756;51.354;15.754;2022-07-15T12:47:18;2.43;;;1.10;;
13374;SDS011;6756;51.354;15.754;2022-07-15T12:51:23;3.07;;;0.53;;
13374;SDS011;6756;51.354;15.754;2022-07-15T12:55:26;3.10;;;0.70;;
13374;SDS011;6756;51.354;15.754;2022-07-15T12:59:51;3.57;;;0.60;;
13374;SDS011;6756;51.354;15.754;2022-07-15T13:03:53;1.33;;;0.50;;
13374;SDS011;6756;51.354;15.754;2022-07-15T13:07:54;2.73;;;0.60;;
13374;SDS011;6756;51.354;15.754;2022-07-15T13:11:58;4.20;;;0.87;;
13374;SDS011;6756;51.354;15.754;2022-07-15T13:16:01;3.73;;;0.70;;
13374;SDS011;6756;51.354;15.754;2022-07-15T13:20:03;2.50;;;0.73;;
13374;SDS011;6756;51.354;15.754;2022-07-15T13:24:08;2.53;;;0.50;;
13374;SDS011;6756;51.354;15.754;2022-07-15T13:28:09;1.97;;;0.60;;
13374;SDS011;6756;51.354;15.754;2022-07-15T13:32:10;1.67;;;0.50;;
13374;SDS011;6756;51.354;15.754;2022-07-15T13:36:11;1.93;;;0.90;;
13374;SDS011;6756;51.354;15.754;2022-07-15T13:40:12;4.90;;;0.60;;
13374;SDS011;6756;51.354;15.754;2022-07-15T13:44:13;2.13;;;0.50;;
13374;SDS011;6756;51.354;15.754;2022-07-15T13:48:14;2.77;;;0.70;;
13374;SDS011;6756;51.354;15.754;2022-07-15T13:52:15;1.90;;;0.57;;
13374;SDS011;6756;51.354;15.754;2022-07-15T13:56:16;4.00;;;0.80;;
13374;SDS011;6756;51.354;15.754;2022-07-15T14:00:18;2.53;;;0.80;;
13374;SDS011;6756;51.354;15.754;2022-07-15T14:04:22;3.07;;;0.73;;
13374;SDS011;6756;51.354;15.754;2022-07-15T14:08:24;2.27;;;0.50;;
13374;SDS011;6756;51.354;15.754;2022-07-15T14:12:25;5.27;;;0.70;;
13374;SDS011;6756;51.354;15.754;2022-07-15T14:16:26;4.30;;;1.10;;
13374;SDS011;6756;51.354;15.754;2022-07-15T14:20:26;1.40;;;0.63;;
13374;SDS011;6756;51.354;15.754;2022-07-15T14:24:27;4.03;;;0.90;;
13374;SDS011;6756;51.354;15.754;2022-07-15T14:28:28;2.97;;;1.00;;
13374;SDS011;6756;51.354;15.754;2022-07-15T14:32:29;5.47;;;0.90;;
13374;SDS011;6756;51.354;15.754;2022-07-15T14:36:30;3.60;;;0.60;;
13374;SDS011;6756;51.354;15.754;2022-07-15T14:40:31;2.40;;;0.60;;
13374;SDS011;6756;51.354;15.754;2022-07-15T14:44:32;1.87;;;0.40;;
13374;SDS011;6756;51.354;15.754;2022-07-15T14:48:32;2.10;;;0.63;;
13374;SDS011;6756;51.354;15.754;2022-07-15T14:52:33;4.40;;;1.13;;
13374;SDS011;6756;51.354;15.754;2022-07-15T14:56:34;4.23;;;0.70;;
13374;SDS011;6756;51.354;15.754;2022-07-15T15:00:35;2.43;;;0.70;;
13374;SDS011;6756;51.354;15.754;2022-07-15T15:04:36;2.63;;;0.70;;
13374;SDS011;6756;51.354;15.754;2022-07-15T15:08:37;5.00;;;0.70;;
13374;SDS011;6756;51.354;15.754;2022-07-15T15:12:38;3.87;;;0.50;;
13374;SDS011;6756;51.354;15.754;2022-07-15T15:16:39;4.97;;;1.00;;
13374;SDS011;6756;51.354;15.754;2022-07-15T15:20:40;2.77;;;0.87;;
13374;SDS011;6756;51.354;15.754;2022-07-15T15:24:41;2.77;;;0.53;;
13374;SDS011;6756;51.354;15.754;2022-07-15T15:28:42;2.70;;;0.50;;
13374;SDS011;6756;51.354;15.754;2022-07-15T15:32:43;2.03;;;0.70;;
13374;SDS011;6756;51.354;15.754;2022-07-15T15:36:44;2.43;;;0.70;;
13374;SDS011;6756;51.354;15.754;2022-07-15T15:40:45;3.87;;;0.70;;
13374;SDS011;6756;51.354;15.754;2022-07-15T15:44:46;2.40;;;0.67;;
13374;SDS011;6756;51.354;15.754;2022-07-15T15:48:47;3.30;;;0.67;;
13374;SDS011;6756;51.354;15.754;2022-07-15T15:52:48;3.73;;;0.77;;
13374;SDS011;6756;51.354;15.754;2022-07-15T15:56:49;2.47;;;0.77;;
13374;SDS011;6756;51.354;15.754;2022-07-15T16:00:50;3.10;;;0.80;;
13374;SDS011;6756;51.354;15.754;2022-07-15T16:04:51;3.07;;;0.53;;
13374;SDS011;6756;51.354;15.754;2022-07-15T16:08:52;1.93;;;0.53;;
13374;SDS011;6756;51.354;15.754;2022-07-15T16:12:53;3.23;;;0.73;;
13374;SDS011;6756;51.354;15.754;2022-07-15T16:16:54;1.97;;;0.50;;
13374;SDS011;6756;51.354;15.754;2022-07-15T16:20:55;2.43;;;0.53;;
13374;SDS011;6756;51.354;15.754;2022-07-15T16:24:56;3.30;;;0.57;;
13374;SDS011;6756;51.354;15.754;2022-07-15T16:28:57;2.00;;;0.50;;
13374;SDS011;6756;51.354;15.754;2022-07-15T16:32:58;4.20;;;1.00;;
13374;SDS011;6756;51.354;15.754;2022-07-15T16:37:01;1.90;;;0.60;;
13374;SDS011;6756;51.354;15.754;2022-07-15T16:41:02;1.90;;;0.40;;
13374;SDS011;6756;51.354;15.754;2022-07-15T16:45:03;2.37;;;0.67;;
13374;SDS011;6756;51.354;15.754;2022-07-15T16:49:04;3.13;;;0.60;;
13374;SDS011;6756;51.354;15.754;2022-07-15T16:53:05;2.43;;;0.70;;
13374;SDS011;6756;51.354;15.754;2022-07-15T16:57:06;2.87;;;0.60;;
13374;SDS011;6756;51.354;15.754;2022-07-15T17:01:07;5.10;;;0.90;;
13374;SDS011;6756;51.354;15.754;2022-07-15T17:05:07;3.37;;;0.60;;
13374;SDS011;6756;51.354;15.754;2022-07-15T17:09:10;1.27;;;0.50;;
13374;SDS011;6756;51.354;15.754;2022-07-15T17:13:11;3.37;;;0.80;;
13374;SDS011;6756;51.354;15.754;2022-07-15T17:17:12;2.13;;;0.50;;
13374;SDS011;6756;51.354;15.754;2022-07-15T17:21:13;2.63;;;0.70;;
13374;SDS011;6756;51.354;15.754;2022-07-15T17:25:14;3.40;;;0.70;;
13374;SDS011;6756;51.354;15.754;2022-07-15T17:29:14;3.50;;;0.57;;
13374;SDS011;6756;51.354;15.754;2022-07-15T17:33:15;2.27;;;0.33;;
13374;SDS011;6756;51.354;15.754;2022-07-15T17:37:19;1.00;;;0.40;;
13374;SDS011;6756;51.354;15.754;2022-07-15T17:41:20;1.33;;;0.40;;
13374;SDS011;6756;51.354;15.754;2022-07-15T17:45:21;3.67;;;0.63;;
13374;SDS011;6756;51.354;15.754;2022-07-15T17:49:22;2.53;;;0.47;;
13374;SDS011;6756;51.354;15.754;2022-07-15T17:53:24;1.73;;;0.70;;
13374;SDS011;6756;51.354;15.754;2022-07-15T17:57:25;3.47;;;0.90;;
13374;SDS011;6756;51.354;15.754;2022-07-15T18:01:26;1.90;;;0.60;;
13374;SDS011;6756;51.354;15.754;2022-07-15T18:05:27;1.50;;;0.60;;
13374;SDS011;6756;51.354;15.754;2022-07-15T18:09:28;4.07;;;0.90;;
13374;SDS011;6756;51.354;15.754;2022-07-15T18:13:29;2.40;;;0.57;;
13374;SDS011;6756;51.354;15.754;2022-07-15T18:17:30;1.73;;;0.70;;
13374;SDS011;6756;51.354;15.754;2022-07-15T18:21:32;1.90;;;0.60;;
13374;SDS011;6756;51.354;15.754;2022-07-15T18:25:33;1.60;;;0.70;;
13374;SDS011;6756;51.354;15.754;2022-07-15T18:29:33;2.97;;;0.73;;
13374;SDS011;6756;51.354;15.754;2022-07-15T18:33:34;1.80;;;0.60;;
13374;SDS011;6756;51.354;15.754;2022-07-15T18:37:36;1.13;;;0.63;;
13374;SDS011;6756;51.354;15.754;2022-07-15T18:41:37;4.87;;;0.60;;
13374;SDS011;6756;51.354;15.754;2022-07-15T18:45:38;2.57;;;0.40;;
13374;SDS011;6756;51.354;15.754;2022-07-15T18:49:39;2.07;;;0.50;;
13374;SDS011;6756;51.354;15.754;2022-07-15T18:53:40;2.20;;;0.50;;
13374;SDS011;6756;51.354;15.754;2022-07-15T18:57:40;3.93;;;0.63;;
13374;SDS011;6756;51.354;15.754;2022-07-15T19:01:42;2.97;;;0.70;;
13374;SDS011;6756;51.354;15.754;2022-07-15T19:05:45;1.63;;;0.53;;
13374;SDS011;6756;51.354;15.754;2022-07-15T19:09:46;1.20;;;0.33;;
13374;SDS011;6756;51.354;15.754;2022-07-15T19:13:48;1.90;;;0.40;;
13374;SDS011;6756;51.354;15.754;2022-07-15T19:17:49;2.67;;;0.70;;
13374;SDS011;6756;51.354;15.754;2022-07-15T19:21:50;1.43;;;0.50;;
13374;SDS011;6756;51.354;15.754;2022-07-15T19:25:50;3.10;;;0.70;;
13374;SDS011;6756;51.354;15.754;2022-07-15T19:29:51;0.90;;;0.50;;
13374;SDS011;6756;51.354;15.754;2022-07-15T19:33:53;0.60;;;0.40;;
13374;SDS011;6756;51.354;15.754;2022-07-15T19:37:54;2.50;;;0.70;;
13374;SDS011;6756;51.354;15.754;2022-07-15T19:41:55;1.43;;;0.50;;
13374;SDS011;6756;51.354;15.754;2022-07-15T19:45:58;0.90;;;0.43;;
13374;SDS011;6756;51.354;15.754;2022-07-15T19:49:59;1.93;;;0.60;;
13374;SDS011;6756;51.354;15.754;2022-07-15T19:54:00;1.87;;;0.60;;
13374;SDS011;6756;51.354;15.754;2022-07-15T19:58:01;1.43;;;0.47;;
13374;SDS011;6756;51.354;15.754;2022-07-15T20:52:12;1.00;;;0.60;;
13374;SDS011;6756;51.354;15.754;2022-07-15T20:56:13;1.63;;;0.60;;
13374;SDS011;6756;51.354;15.754;2022-07-15T21:00:14;0.93;;;0.60;;
13374;SDS011;6756;51.354;15.754;2022-07-15T21:04:15;1.73;;;0.60;;
13374;SDS011;6756;51.354;15.754;2022-07-15T21:08:17;0.90;;;0.50;;
13374;SDS011;6756;51.354;15.754;2022-07-15T21:12:18;2.20;;;0.50;;
13374;SDS011;6756;51.354;15.754;2022-07-15T21:16:19;3.83;;;0.70;;
13374;SDS011;6756;51.354;15.754;2022-07-15T21:20:21;1.53;;;0.90;;
13374;SDS011;6756;51.354;15.754;2022-07-15T21:24:21;0.93;;;0.63;;
13374;SDS011;6756;51.354;15.754;2022-07-15T21:28:41;1.33;;;0.70;;
13374;SDS011;6756;51.354;15.754;2022-07-15T21:32:42;0.90;;;0.40;;
13374;SDS011;6756;51.354;15.754;2022-07-15T21:36:43;0.90;;;0.70;;
13374;SDS011;6756;51.354;15.754;2022-07-15T21:40:44;2.07;;;1.00;;
13374;SDS011;6756;51.354;15.754;2022-07-15T21:44:45;1.67;;;0.93;;
13374;SDS011;6756;51.354;15.754;2022-07-15T21:48:46;1.73;;;0.97;;
13374;SDS011;6756;51.354;15.754;2022-07-15T21:52:47;0.90;;;0.77;;
13374;SDS011;6756;51.354;15.754;2022-07-15T21:56:47;1.50;;;0.90;;
13374;SDS011;6756;51.354;15.754;2022-07-15T22:00:48;3.83;;;0.80;;
13374;SDS011;6756;51.354;15.754;2022-07-15T22:04:49;4.47;;;1.07;;
13374;SDS011;6756;51.354;15.754;2022-07-15T22:08:51;1.80;;;1.00;;
13374;SDS011;6756;51.354;15.754;2022-07-15T22:12:52;3.53;;;0.90;;
13374;SDS011;6756;51.354;15.754;2022-07-15T22:16:53;4.70;;;1.30;;
13374;SDS011;6756;51.354;15.754;2022-07-15T22:20:54;4.03;;;1.40;;
13374;SDS011;6756;51.354;15.754;2022-07-15T22:24:55;2.27;;;1.10;;
13374;SDS011;6756;51.354;15.754;2022-07-15T22:28:56;3.70;;;1.20;;
13374;SDS011;6756;51.354;15.754;2022-07-15T22:32:57;2.00;;;1.27;;
13374;SDS011;6756;51.354;15.754;2022-07-15T22:36:58;3.77;;;1.27;;
13374;SDS011;6756;51.354;15.754;2022-07-15T22:40:58;4.07;;;1.40;;
13374;SDS011;6756;51.354;15.754;2022-07-15T22:45:00;4.13;;;1.50;;
13374;SDS011;6756;51.354;15.754;2022-07-15T22:49:04;3.23;;;1.33;;
13374;SDS011;6756;51.354;15.754;2022-07-15T22:53:05;2.23;;;1.37;;
13374;SDS011;6756;51.354;15.754;2022-07-15T22:57:08;2.90;;;1.33;;
13374;SDS011;6756;51.354;15.754;2022-07-15T23:01:08;3.53;;;1.40;;
13374;SDS011;6756;51.354;15.754;2022-07-15T23:05:09;2.53;;;1.40;;
13374;SDS011;6756;51.354;15.754;2022-07-15T23:09:11;2.73;;;1.17;;
13374;SDS011;6756;51.354;15.754;2022-07-15T23:13:12;4.10;;;1.43;;
13374;SDS011;6756;51.354;15.754;2022-07-15T23:17:13;4.87;;;1.43;;
13374;SDS011;6756;51.354;15.754;2022-07-15T23:21:14;1.77;;;1.20;;
13374;SDS011;6756;51.354;15.754;2022-07-15T23:25:14;2.70;;;1.10;;
13374;SDS011;6756;51.354;15.754;2022-07-15T23:29:15;1.80;;;1.00;;
13374;SDS011;6756;51.354;15.754;2022-07-15T23:33:16;3.90;;;1.20;;
13374;SDS011;6756;51.354;15.754;2022-07-15T23:37:17;2.10;;;1.13;;
13374;SDS011;6756;51.354;15.754;2022-07-15T23:41:18;2.67;;;1.20;;
13374;SDS011;6756;51.354;15.754;2022-07-15T23:45:19;3.57;;;0.97;;
13374;SDS011;6756;51.354;15.754;2022-07-15T23:49:20;2.30;;;1.10;;
13374;SDS011;6756;51.354;15.754;2022-07-15T23:53:21;2.90;;;1.03;;
13374;SDS011;6756;51.354;15.754;2022-07-15T23:57:22;1.90;;;0.97;;
